Time;durP1;ratioP1;P1;durP2;ratioP2;P2;SDS_P1;SDS_P2;PMS_P1;PMS_P2;Temp;Humidity;BMP_temperature;BMP_pressure;BME280_temperature;BME280_humidity;BME280_pressure;Samples;Min_cycle;Max_cycle;Signal;HPM_P1;HPM_P2
2023/03/15 00:00:00;;;;;;;24.75;11.15;;;;;;;15.49;76.12;93246.19;4980000;28;20023;-87
2023/03/15 00:02:26;;;;;;;25.00;11.57;;;;;;;15.59;74.46;93245.03;4995988;28;20033;-88
2023/03/15 00:04:53;;;;;;;20.90;11.05;;;;;;;15.63;75.03;93246.66;4996092;28;20026;-87
2023/03/15 00:07:24;;;;;;;21.98;11.23;;;;;;;15.92;72.74;93236.31;4996292;28;20326;-87
2023/03/15 00:09:52;;;;;;;22.05;10.35;;;;;;;15.75;75.68;93231.97;4996943;28;20458;-87
2023/03/15 00:12:18;;;;;;;22.05;12.15;;;;;;;15.50;76.02;93234.56;4995942;28;20031;-89
2023/03/15 00:14:43;;;;;;;23.25;12.60;;;;;;;15.51;75.31;93238.75;4996012;28;20037;-87
2023/03/15 00:17:10;;;;;;;21.83;12.57;;;;;;;15.66;75.05;93246.03;4995725;28;20089;-87
2023/03/15 00:19:36;;;;;;;25.38;12.63;;;;;;;15.67;75.75;93244.16;4996185;28;20054;-88
2023/03/15 00:22:01;;;;;;;23.10;13.05;;;;;;;15.56;75.10;93230.59;4996151;28;20412;-87
2023/03/15 00:24:26;;;;;;;24.70;13.35;;;;;;;14.94;79.57;93239.06;4995886;28;20125;-87
2023/03/15 00:26:52;;;;;;;25.05;13.68;;;;;;;14.66;82.39;93222.94;4996152;28;20052;-88
2023/03/15 00:29:17;;;;;;;25.33;13.90;;;;;;;14.45;85.53;93223.69;4995829;28;20031;-88
2023/03/15 00:31:43;;;;;;;24.80;12.57;;;;;;;14.55;84.70;93225.16;4995832;28;20448;-87
2023/03/15 00:34:08;;;;;;;22.23;12.82;;;;;;;14.57;82.83;93223.00;4995669;28;20031;-87
2023/03/15 00:36:34;;;;;;;27.17;12.70;;;;;;;14.44;85.25;93222.16;4996825;28;20396;-87
2023/03/15 00:38:59;;;;;;;23.00;12.80;;;;;;;14.80;82.74;93234.06;4999253;28;20034;-88
2023/03/15 00:41:25;;;;;;;25.30;12.00;;;;;;;14.88;81.36;93245.63;4983073;28;20428;-88
2023/03/15 00:43:50;;;;;;;21.88;12.18;;;;;;;15.11;79.22;93243.44;4999033;28;20033;-87
2023/03/15 00:46:16;;;;;;;23.30;12.40;;;;;;;14.66;84.41;93244.78;4999472;28;20037;-88
2023/03/15 00:48:42;;;;;;;23.38;11.90;;;;;;;14.97;78.90;93248.94;4999331;28;20027;-88
2023/03/15 00:51:09;;;;;;;27.52;12.23;;;;;;;15.23;77.53;93260.41;4999434;28;20037;-88
2023/03/15 00:53:36;;;;;;;24.15;12.77;;;;;;;14.94;79.55;93267.31;4998978;28;20395;-88
2023/03/15 00:56:30;;;;;;;24.23;12.25;;;;;;;14.52;84.31;93258.22;4998986;28;20033;-88
2023/03/15 00:58:56;;;;;;;23.10;12.25;;;;;;;13.63;92.02;93259.66;4990389;28;20046;-87
2023/03/15 01:01:27;;;;;;;24.20;12.98;;;;;;;13.71;94.57;93250.97;4999146;28;20424;-88
2023/03/15 01:03:53;;;;;;;26.83;12.80;;;;;;;13.90;91.92;93272.75;4982963;28;20023;-87
2023/03/15 01:06:24;;;;;;;25.02;12.63;;;;;;;14.51;84.28;93274.34;4998930;28;20033;-88
2023/03/15 01:08:51;;;;;;;25.33;11.65;;;;;;;14.72;78.58;93279.69;4998755;28;20094;-88
2023/03/15 01:11:19;;;;;;;27.73;11.55;;;;;;;14.36;83.14;93273.81;4998975;28;20042;-87
2023/03/15 01:13:44;;;;;;;19.23;11.02;;;;;;;14.70;78.38;93272.09;4998758;28;20042;-88
2023/03/15 01:16:12;;;;;;;20.33;10.05;;;;;;;15.33;75.80;93291.66;4998960;28;20034;-87
2023/03/15 01:18:38;;;;;;;20.50;10.00;;;;;;;14.35;77.86;93282.78;4998815;28;20030;-88
2023/03/15 01:21:07;;;;;;;22.20;10.48;;;;;;;15.02;74.38;93292.81;4998827;28;20077;-89
2023/03/15 01:23:33;;;;;;;18.85;10.10;;;;;;;15.11;72.63;93280.34;4998504;28;20030;-88
2023/03/15 01:26:00;;;;;;;17.90;9.18;;;;;;;14.51;76.44;93279.63;4998775;28;20057;-87
2023/03/15 01:28:25;;;;;;;19.52;8.88;;;;;;;14.45;74.70;93281.66;4998445;28;20089;-87
2023/03/15 01:30:52;;;;;;;16.33;7.88;;;;;;;14.83;69.26;93280.88;4998659;28;20034;-88
2023/03/15 01:33:18;;;;;;;14.00;7.78;;;;;;;15.11;68.30;93285.63;4998322;28;20117;-88
2023/03/15 01:35:44;;;;;;;12.27;6.65;;;;;;;15.04;64.63;93290.63;4998539;28;20030;-88
2023/03/15 01:38:09;;;;;;;13.05;7.50;;;;;;;14.97;65.69;93290.41;5014601;28;20042;-87
2023/03/15 01:40:48;;;;;;;13.07;6.88;;;;;;;14.28;66.90;93287.81;4998171;28;20034;-88
2023/03/15 01:43:19;;;;;;;15.05;6.22;;;;;;;14.86;63.34;93281.31;4998708;28;20022;-87
2023/03/15 01:45:52;;;;;;;10.38;5.15;;;;;;;14.68;62.20;93281.41;4998243;28;20035;-87
2023/03/15 01:48:18;;;;;;;14.02;6.13;;;;;;;14.64;61.21;93277.84;4997980;28;20031;-88
2023/03/15 01:50:43;;;;;;;11.98;5.65;;;;;;;13.68;62.49;93271.88;4998326;28;20037;-88
2023/03/15 01:53:09;;;;;;;9.40;5.60;;;;;;;14.13;61.51;93278.56;4998014;28;20508;-88
2023/03/15 01:55:34;;;;;;;8.90;4.70;;;;;;;14.46;59.28;93275.28;4997904;28;20057;-88
2023/03/15 01:58:01;;;;;;;9.60;4.75;;;;;;;14.35;58.34;93266.22;4997959;28;20076;-87
2023/03/15 02:00:26;;;;;;;11.73;4.63;;;;;;;14.24;58.87;93271.84;4997767;28;20441;-86
2023/03/15 02:02:59;;;;;;;8.40;4.18;;;;;;;13.53;60.46;93273.16;4997571;28;20030;-88
2023/03/15 02:05:29;;;;;;;9.50;4.53;;;;;;;14.33;57.60;93284.19;4997831;28;20429;-87
2023/03/15 02:07:55;;;;;;;7.75;4.22;;;;;;;14.37;57.76;93277.97;4998928;28;20026;-87
2023/03/15 02:10:30;;;;;;;7.28;3.65;;;;;;;14.52;56.88;93268.78;4997369;28;20084;-87
2023/03/15 02:12:57;;;;;;;6.68;3.90;;;;;;;14.34;56.48;93275.19;4997324;28;20446;-88
2023/03/15 02:15:22;;;;;;;8.07;4.03;;;;;;;14.18;56.54;93267.84;4997735;28;20026;-87
2023/03/15 02:17:54;;;;;;;6.75;3.83;;;;;;;14.50;56.03;93270.16;4997770;28;20026;-87
2023/03/15 02:20:31;;;;;;;10.15;4.18;;;;;;;14.18;56.45;93273.09;4997589;28;20034;-88
2023/03/15 02:23:05;;;;;;;7.78;3.85;;;;;;;14.00;55.90;93275.81;4998285;28;20325;-87
2023/03/15 02:25:48;;;;;;;10.23;3.80;;;;;;;13.49;55.63;93283.50;4998330;28;20109;-87
2023/03/15 02:28:15;;;;;;;7.15;3.67;;;;;;;14.02;54.85;93286.03;5013619;28;20045;-88
2023/03/15 02:30:41;;;;;;;9.48;3.42;;;;;;;13.32;56.04;93291.41;4997032;28;20109;-87
2023/03/15 02:33:14;;;;;;;6.57;3.30;;;;;;;13.51;55.17;93293.75;4997213;28;20117;-87
2023/03/15 02:35:39;;;;;;;5.60;3.20;;;;;;;13.82;53.71;93304.03;4997452;28;20034;-87
2023/03/15 02:38:04;;;;;;;7.43;3.60;;;;;;;13.64;54.54;93316.47;4997204;28;20072;-87
2023/03/15 02:40:30;;;;;;;6.13;3.25;;;;;;;13.82;53.22;93317.19;4997275;28;20022;-88
2023/03/15 02:43:09;;;;;;;7.18;3.40;;;;;;;14.32;52.48;93309.78;4997318;28;20026;-87
2023/03/15 02:45:35;;;;;;;5.90;2.88;;;;;;;13.96;52.84;93310.97;4996952;28;20455;-87
2023/03/15 02:48:02;;;;;;;5.40;2.88;;;;;;;13.46;52.89;93312.28;4997264;28;20034;-88
2023/03/15 02:50:27;;;;;;;5.68;3.03;;;;;;;13.27;53.20;93316.00;4996774;28;20037;-87
2023/03/15 02:52:53;;;;;;;5.32;2.75;;;;;;;13.50;53.04;93314.00;4996865;28;20355;-87
2023/03/15 02:55:18;;;;;;;7.68;2.80;;;;;;;13.19;53.20;93322.81;4996911;28;20080;-87
2023/03/15 02:57:54;;;;;;;5.88;3.00;;;;;;;13.76;51.29;93315.84;4996826;28;20518;-86
2023/03/15 03:00:20;;;;;;;4.63;2.83;;;;;;;13.61;50.90;93332.13;4996092;28;20069;-87
2023/03/15 03:02:47;;;;;;;4.45;2.45;;;;;;;13.47;51.04;93332.25;4996745;28;20419;-88
2023/03/15 03:05:14;;;;;;;6.30;3.10;;;;;;;13.60;50.57;93333.97;4996821;28;20072;-87
2023/03/15 03:07:41;;;;;;;6.20;2.45;;;;;;;13.75;49.62;93337.19;4996846;28;20038;-87
2023/03/15 03:10:09;;;;;;;4.70;2.55;;;;;;;13.65;49.72;93338.28;4996485;28;20029;-88
2023/03/15 03:12:35;;;;;;;4.38;2.72;;;;;;;12.91;49.83;93333.59;4996504;28;20085;-87
2023/03/15 03:15:01;;;;;;;5.75;3.13;;;;;;;13.50;48.59;93335.06;4996559;28;20034;-87
2023/03/15 03:17:27;;;;;;;4.28;2.50;;;;;;;13.73;48.81;93340.16;4996908;28;20458;-87
2023/03/15 03:19:52;;;;;;;4.95;2.70;;;;;;;12.99;49.10;93342.59;4996915;28;20042;-87
2023/03/15 03:22:18;;;;;;;4.15;2.70;;;;;;;13.35;49.15;93349.44;4991109;28;20150;-86
2023/03/15 03:24:44;;;;;;;6.97;3.22;;;;;;;12.77;49.31;93349.50;4992868;28;20058;-87
2023/03/15 03:27:16;;;;;;;4.28;2.38;;;;;;;13.42;48.11;93348.97;4993191;28;20452;-87
2023/03/15 03:29:41;;;;;;;5.03;2.90;;;;;;;13.31;48.18;93355.63;4992727;28;20031;-87
2023/03/15 03:32:08;;;;;;;5.15;2.33;;;;;;;13.49;48.31;93344.03;4993365;28;20034;-87
2023/03/15 03:34:33;;;;;;;4.35;2.35;;;;;;;13.26;48.46;93346.78;4993051;28;20053;-87
2023/03/15 03:36:59;;;;;;;5.47;2.90;;;;;;;12.76;48.07;93344.53;4993134;28;20035;-87
2023/03/15 03:39:24;;;;;;;4.90;2.75;;;;;;;13.18;48.32;93359.91;4993171;28;20027;-87
2023/03/15 03:41:50;;;;;;;6.50;3.15;;;;;;;12.80;47.99;93364.66;4992995;28;20033;-87
2023/03/15 03:44:16;;;;;;;7.07;3.08;;;;;;;12.64;48.55;93364.28;4977077;28;20113;-87
2023/03/15 03:46:41;;;;;;;6.10;3.22;;;;;;;12.73;47.69;93373.00;4993024;28;20121;-87
2023/03/15 03:49:07;;;;;;;6.18;3.58;;;;;;;12.65;48.24;93371.09;4992851;28;20033;-87
2023/03/15 03:51:36;;;;;;;6.93;3.15;;;;;;;13.00;47.56;93370.41;4992964;28;20054;-87
2023/03/15 03:54:02;;;;;;;10.25;3.83;;;;;;;12.65;48.51;93376.34;4992840;28;20041;-87
2023/03/15 03:56:28;;;;;;;11.27;4.20;;;;;;;12.68;47.29;93375.75;4992929;28;20027;-87
2023/03/15 03:58:53;;;;;;;9.68;3.75;;;;;;;13.06;46.86;93373.69;4992849;28;20034;-87
2023/03/15 04:01:20;;;;;;;8.07;3.88;;;;;;;12.99;46.48;93376.75;4992681;28;20040;-87
2023/03/15 04:03:46;;;;;;;7.30;3.63;;;;;;;13.10;47.34;93380.66;4992613;28;20022;-87
2023/03/15 04:06:12;;;;;;;7.35;4.13;;;;;;;12.91;46.94;93382.75;4976782;28;20031;-87
2023/03/15 04:08:37;;;;;;;9.68;4.60;;;;;;;12.47;47.14;93374.75;4992969;28;20023;-88
2023/03/15 04:11:03;;;;;;;8.35;4.30;;;;;;;13.00;46.09;93365.94;4992789;28;20033;-88
2023/03/15 04:13:29;;;;;;;9.45;4.32;;;;;;;13.14;45.57;93368.44;4982307;28;20034;-87
2023/03/15 04:15:56;;;;;;;9.52;4.90;;;;;;;13.02;46.94;93370.88;4999509;28;20096;-87
2023/03/15 04:18:22;;;;;;;10.35;4.97;;;;;;;12.76;47.03;93371.59;4999586;28;20034;-87
2023/03/15 04:20:47;;;;;;;9.68;4.50;;;;;;;12.70;45.90;93367.56;4999502;28;20034;-88
2023/03/15 04:23:14;;;;;;;10.77;4.72;;;;;;;12.92;45.65;93350.16;4983573;28;20030;-87
2023/03/15 04:25:40;;;;;;;10.13;4.50;;;;;;;12.89;45.24;93367.31;4999768;28;20169;-87
2023/03/15 04:28:09;;;;;;;8.23;4.15;;;;;;;12.95;45.74;93373.19;4999383;28;20043;-87
2023/03/15 04:30:35;;;;;;;8.15;4.20;;;;;;;13.02;45.97;93386.66;5000211;28;20030;-88
2023/03/15 04:33:02;;;;;;;8.52;4.40;;;;;;;13.24;44.79;93390.28;4999633;28;20392;-88
2023/03/15 04:35:29;;;;;;;7.35;4.13;;;;;;;13.20;44.25;93400.63;4999209;28;20073;-87
2023/03/15 04:37:55;;;;;;;10.07;4.10;;;;;;;13.15;43.05;93398.91;4983404;28;20030;-87
2023/03/15 04:40:22;;;;;;;7.95;3.65;;;;;;;13.32;43.48;93396.63;4999703;28;20486;-87
2023/03/15 04:42:57;;;;;;;7.68;3.78;;;;;;;13.52;43.20;93403.16;4999640;28;20029;-87
2023/03/15 04:45:23;;;;;;;7.70;3.90;;;;;;;13.19;43.71;93406.19;4999315;28;20124;-87
2023/03/15 04:47:50;;;;;;;6.30;3.30;;;;;;;13.22;43.50;93400.31;4999214;28;20110;-87
2023/03/15 04:50:15;;;;;;;8.77;3.40;;;;;;;13.14;42.63;93397.34;4999058;28;20026;-87
2023/03/15 04:52:41;;;;;;;8.68;2.80;;;;;;;13.02;40.74;93399.81;4999211;28;20096;-88
2023/03/15 04:55:08;;;;;;;4.60;2.22;;;;;;;12.95;39.71;93407.38;4999377;28;20022;-87
2023/03/15 04:57:38;;;;;;;6.40;2.22;;;;;;;13.03;40.23;93406.63;4999034;28;20027;-87
2023/03/15 05:00:06;;;;;;;5.90;2.75;;;;;;;13.12;40.73;93396.91;4998787;28;20084;-87
2023/03/15 05:02:32;;;;;;;7.15;2.42;;;;;;;12.56;39.57;93405.22;4999009;28;20097;-87
2023/03/15 05:04:57;;;;;;;5.30;2.22;;;;;;;12.78;39.44;93411.50;4997951;28;20105;-87
2023/03/15 05:07:26;;;;;;;4.68;2.00;;;;;;;12.90;39.59;93412.75;4998927;28;20030;-87
2023/03/15 05:09:58;;;;;;;3.58;1.88;;;;;;;12.82;38.63;93409.81;4998506;28;20034;-87
2023/03/15 05:12:28;;;;;;;7.15;2.15;;;;;;;12.71;39.73;93416.41;4998665;28;20026;-87
2023/03/15 05:14:53;;;;;;;2.10;1.35;;;;;;;12.27;37.85;93429.34;4999928;28;20033;-87
2023/03/15 05:17:21;;;;;;;2.80;1.52;;;;;;;11.30;41.00;93410.22;4998536;28;20030;-87
2023/03/15 05:19:47;;;;;;;2.10;1.13;;;;;;;12.40;36.46;93425.84;4982597;28;20022;-88
2023/03/15 05:22:13;;;;;;;2.00;1.10;;;;;;;11.90;36.79;93420.75;4998439;28;20023;-87
2023/03/15 05:24:38;;;;;;;1.58;1.00;;;;;;;12.00;36.23;93429.16;4999698;28;20026;-87
2023/03/15 05:27:04;;;;;;;1.60;1.00;;;;;;;11.92;36.14;93445.63;4998355;28;20112;-87
2023/03/15 05:29:29;;;;;;;6.05;1.10;;;;;;;12.77;35.71;93431.00;5014709;28;20168;-87
2023/03/15 05:31:55;;;;;;;2.40;1.00;;;;;;;12.60;36.04;93436.94;5014608;28;20033;-87
2023/03/15 05:34:23;;;;;;;1.83;0.90;;;;;;;12.29;35.93;93441.09;5014695;28;20026;-87
2023/03/15 05:36:50;;;;;;;1.15;0.70;;;;;;;12.34;34.97;93447.28;4998630;28;20022;-87
2023/03/15 05:39:16;;;;;;;2.00;0.90;;;;;;;11.90;35.46;93453.00;4998239;28;20339;-87
2023/03/15 05:41:42;;;;;;;2.28;0.80;;;;;;;11.81;34.89;93450.31;4998276;28;20022;-87
2023/03/15 05:44:07;;;;;;;2.42;0.73;;;;;;;12.26;34.39;93454.03;4982127;28;20029;-87
2023/03/15 05:46:32;;;;;;;2.25;0.85;;;;;;;12.13;34.63;93453.06;4998223;28;20077;-87
2023/03/15 05:48:58;;;;;;;2.00;0.82;;;;;;;11.99;35.53;93458.34;4999219;28;20054;-87
2023/03/15 05:51:24;;;;;;;2.25;1.20;;;;;;;11.96;34.36;93464.97;4998041;28;20081;-87
2023/03/15 05:53:49;;;;;;;0.52;0.50;;;;;;;11.82;35.34;93457.13;4998142;28;20080;-87
2023/03/15 05:56:15;;;;;;;1.70;0.60;;;;;;;12.04;34.20;93471.38;4997812;28;20030;-87
2023/03/15 05:58:40;;;;;;;0.40;0.30;;;;;;;11.84;33.70;93468.13;4998970;28;20515;-89
2023/03/15 06:01:06;;;;;;;1.40;0.60;;;;;;;11.88;34.36;93469.06;4998141;28;20066;-88
2023/03/15 06:03:31;;;;;;;2.75;0.43;;;;;;;12.23;33.46;93465.16;4997635;28;20425;-86
2023/03/15 06:05:57;;;;;;;2.90;0.47;;;;;;;12.38;32.82;93471.91;4998367;28;20030;-86
2023/03/15 06:08:23;;;;;;;1.42;0.60;;;;;;;12.23;32.29;93481.69;4997356;28;20033;-86
2023/03/15 06:10:49;;;;;;;1.35;0.60;;;;;;;12.49;32.04;93494.22;4997319;28;20117;-86
2023/03/15 06:13:15;;;;;;;1.40;0.50;;;;;;;12.28;33.71;93494.69;4998771;28;20065;-86
2023/03/15 06:15:40;;;;;;;1.05;0.63;;;;;;;12.69;32.56;93508.69;4997349;28;20026;-86
2023/03/15 06:18:06;;;;;;;0.98;0.60;;;;;;;13.05;32.77;93500.97;4997209;28;20115;-85
2023/03/15 06:20:31;;;;;;;0.45;0.40;;;;;;;13.17;31.87;93501.19;4997166;28;20026;-86
2023/03/15 06:22:57;;;;;;;0.82;0.40;;;;;;;13.00;31.08;93509.78;4997215;28;20019;-86
2023/03/15 06:25:22;;;;;;;0.98;0.52;;;;;;;12.95;30.43;93513.31;4997174;28;20026;-86
2023/03/15 06:27:52;;;;;;;1.02;0.50;;;;;;;12.70;30.64;93499.75;4996866;28;20030;-86
2023/03/15 06:30:19;;;;;;;8.88;0.50;;;;;;;12.88;31.04;93518.22;4980995;28;20027;-86
2023/03/15 06:32:44;;;;;;;0.55;0.30;;;;;;;12.95;29.58;93520.44;4981181;28;20230;-86
2023/03/15 06:35:10;;;;;;;1.45;0.60;;;;;;;12.54;30.74;93522.19;4997634;28;20108;-86
2023/03/15 06:37:35;;;;;;;0.82;0.35;;;;;;;13.45;31.00;93521.25;4998174;28;20344;-86
2023/03/15 06:40:09;;;;;;;4.78;0.68;;;;;;;13.32;30.52;93525.53;4996725;28;20053;-86
2023/03/15 06:42:35;;;;;;;1.40;0.77;;;;;;;13.52;29.97;93526.84;4996828;28;20049;-86
2023/03/15 06:45:01;;;;;;;0.73;0.30;;;;;;;13.03;31.00;93532.81;4997967;28;20026;-86
2023/03/15 06:47:31;;;;;;;1.58;0.40;;;;;;;13.56;30.24;93533.03;4996788;28;20125;-86
2023/03/15 06:49:57;;;;;;;0.50;0.30;;;;;;;13.04;28.82;93544.88;4996629;28;20027;-86
2023/03/15 06:52:22;;;;;;;0.52;0.40;;;;;;;13.66;30.10;93540.66;4996505;28;20030;-85
2023/03/15 06:54:48;;;;;;;0.28;0.22;;;;;;;13.74;30.64;93549.66;4996001;28;20055;-89
2023/03/15 06:57:13;;;;;;;2.15;0.30;;;;;;;13.87;30.04;93553.22;4980822;28;20030;-88
2023/03/15 06:59:39;;;;;;;1.58;0.50;;;;;;;13.39;31.72;93544.25;4980666;28;20034;-87
2023/03/15 07:02:06;;;;;;;2.35;0.50;;;;;;;13.50;28.92;93550.81;4980819;28;20030;-87
2023/03/15 07:04:31;;;;;;;0.43;0.20;;;;;;;13.33;28.37;93558.63;4996693;28;20033;-88
2023/03/15 07:06:57;;;;;;;0.60;0.20;;;;;;;13.39;30.23;93545.03;4980455;28;20340;-88
2023/03/15 07:09:22;;;;;;;0.10;0.10;;;;;;;13.74;28.71;93557.56;4996955;28;20379;-90
2023/03/15 07:11:48;;;;;;;0.88;0.50;;;;;;;13.70;29.95;93553.97;4996627;28;20030;-90
2023/03/15 07:14:13;;;;;;;2.78;0.28;;;;;;;13.12;28.60;93554.69;4996806;28;20038;-90
2023/03/15 07:16:38;;;;;;;0.85;0.20;;;;;;;13.77;27.66;93580.63;4996350;28;20936;-90
2023/03/15 07:19:04;;;;;;;0.63;0.17;;;;;;;13.31;28.09;93574.72;4980238;28;20030;-90
2023/03/15 07:21:29;;;;;;;0.75;0.50;;;;;;;12.85;28.32;93566.91;4980361;28;20037;-90
2023/03/15 07:23:55;;;;;;;0.90;0.22;;;;;;;13.06;28.27;93568.25;4980302;28;20026;-89
2023/03/15 07:26:20;;;;;;;1.85;0.50;;;;;;;13.67;28.94;93560.63;4996500;28;20037;-90
2023/03/15 07:28:46;;;;;;;0.68;0.28;;;;;;;14.02;27.23;93554.66;4996324;28;20030;-89
2023/03/15 07:31:12;;;;;;;0.10;0.10;;;;;;;13.51;28.86;93570.78;4996432;28;20041;-90
2023/03/15 07:33:37;;;;;;;2.13;0.43;;;;;;;13.27;28.80;93584.31;4996090;28;20030;-90
2023/03/15 07:36:04;;;;;;;0.90;0.20;;;;;;;12.88;27.91;93589.22;4980207;28;20053;-90
2023/03/15 07:38:30;;;;;;;1.02;0.28;;;;;;;12.94;28.08;93585.38;4996284;28;20036;-90
2023/03/15 07:40:57;;;;;;;0.35;0.10;;;;;;;12.84;27.82;93554.09;4996335;28;20124;-90
2023/03/15 07:43:22;;;;;;;1.10;0.30;;;;;;;12.90;28.17;93586.25;4996679;28;20026;-91
2023/03/15 07:45:48;;;;;;;1.48;0.30;;;;;;;13.39;28.09;93575.81;4996190;28;20030;-91
2023/03/15 07:48:14;;;;;;;1.17;0.40;;;;;;;12.96;28.53;93582.44;5000016;28;20054;-91
2023/03/15 07:50:40;;;;;;;1.27;0.20;;;;;;;13.59;27.92;93586.94;5000191;28;20068;-91
2023/03/15 07:53:05;;;;;;;0.10;0.10;;;;;;;13.62;28.29;93581.81;4984052;28;20080;-90
2023/03/15 07:55:32;;;;;;;0.28;0.20;;;;;;;13.54;28.12;93591.22;4984003;28;20030;-91
2023/03/15 07:57:57;;;;;;;0.20;0.20;;;;;;;13.29;27.79;93592.66;5000488;28;20056;-91
2023/03/15 08:00:23;;;;;;;0.20;0.20;;;;;;;14.24;28.17;93580.06;4983882;28;20062;-91
2023/03/15 08:02:49;;;;;;;0.10;0.10;;;;;;;13.79;28.34;93567.16;4999905;28;20041;-91
2023/03/15 08:05:17;;;;;;;0.40;0.20;;;;;;;13.48;29.08;93573.25;4983910;28;20510;-91
2023/03/15 08:07:46;;;;;;;0.60;0.20;;;;;;;13.95;27.05;93594.59;5000159;28;20447;-91
2023/03/15 08:10:12;;;;;;;4.97;0.20;;;;;;;13.82;28.04;93582.34;4999965;28;20514;-91
2023/03/15 08:12:39;;;;;;;0.73;0.30;;;;;;;13.83;26.16;93603.09;4999629;28;20081;-90
2023/03/15 08:15:05;;;;;;;0.30;0.20;;;;;;;13.83;26.66;93594.44;4999748;28;20060;-90
2023/03/15 08:17:31;;;;;;;2.50;0.68;;;;;;;13.54;28.06;93622.06;4999597;28;20034;-90
2023/03/15 08:19:56;;;;;;;0.68;0.20;;;;;;;13.67;27.47;93596.69;4999611;28;20503;-91
2023/03/15 08:22:24;;;;;;;1.42;0.20;;;;;;;14.87;26.98;93597.44;4999625;28;20057;-91
2023/03/15 08:24:52;;;;;;;1.67;0.43;;;;;;;14.54;28.33;93593.41;4999689;28;20053;-91
2023/03/15 08:27:18;;;;;;;1.50;0.20;;;;;;;14.31;27.46;93607.81;4999519;28;20034;-92
2023/03/15 08:29:43;;;;;;;0.03;0.03;;;;;;;14.87;28.29;93629.09;4999423;28;20034;-90
2023/03/15 08:32:09;;;;;;;0.20;0.20;;;;;;;13.62;27.56;93617.91;4999359;28;20093;-91
2023/03/15 08:34:35;;;;;;;7.57;0.20;;;;;;;13.23;27.00;93610.44;4983380;28;20039;-92
2023/03/15 08:37:40;;;;;;;0.13;0.10;;;;;;;15.01;26.37;93628.91;5016073;28;20037;-91
2023/03/15 08:40:09;;;;;;;0.28;0.20;;;;;;;13.99;26.95;93661.38;5015946;28;20033;-92
2023/03/15 08:42:37;;;;;;;0.65;0.20;;;;;;;13.13;27.89;93623.84;4999219;28;20344;-91
2023/03/15 08:45:07;;;;;;;0.52;0.30;;;;;;;14.20;27.03;93629.22;4999243;28;20339;-91
2023/03/15 08:47:36;;;;;;;0.30;0.30;;;;;;;14.87;26.53;93652.81;4999595;28;20321;-92
2023/03/15 08:50:07;;;;;;;0.70;0.30;;;;;;;14.90;27.72;93640.88;4999651;28;20100;-91
2023/03/15 08:52:33;;;;;;;0.68;0.30;;;;;;;14.80;26.99;93639.31;4999080;28;20034;-91
2023/03/15 08:54:58;;;;;;;0.35;0.17;;;;;;;15.16;27.26;93640.06;4999176;28;20034;-91
2023/03/15 08:57:28;;;;;;;2.03;0.20;;;;;;;14.47;26.57;93648.44;4998541;28;20117;-91
2023/03/15 08:59:54;;;;;;;0.30;0.20;;;;;;;14.55;27.31;93657.44;5000126;28;20367;-92
2023/03/15 09:02:21;;;;;;;0.20;0.15;;;;;;;14.44;27.29;93664.88;4999016;28;20034;-91
2023/03/15 09:04:47;;;;;;;0.32;0.20;;;;;;;14.88;25.94;93651.75;4982902;28;20089;-91
2023/03/15 09:07:14;;;;;;;0.10;0.10;;;;;;;15.87;27.05;93646.66;4998933;28;20033;-91
2023/03/15 09:09:40;;;;;;;0.63;0.20;;;;;;;15.34;26.33;93662.66;4982570;28;20506;-91
2023/03/15 09:12:05;;;;;;;0.30;0.20;;;;;;;15.04;27.24;93659.16;4982730;28;20031;-91
2023/03/15 09:14:31;;;;;;;2.80;0.30;;;;;;;15.24;25.51;93661.13;4998836;28;20034;-91
2023/03/15 09:16:56;;;;;;;0.20;0.20;;;;;;;15.32;25.13;93685.97;4999090;28;20034;-91
2023/03/15 09:19:22;;;;;;;1.20;0.30;;;;;;;15.01;25.82;93665.06;4998725;28;20034;-91
2023/03/15 09:21:47;;;;;;;0.30;0.10;;;;;;;14.82;25.44;93677.50;4982576;28;20471;-91
2023/03/15 09:24:13;;;;;;;2.33;0.20;;;;;;;14.99;25.98;93673.28;4999089;28;20022;-91
2023/03/15 09:26:38;;;;;;;0.47;0.20;;;;;;;14.66;26.04;93673.75;4998402;28;20030;-91
2023/03/15 09:29:04;;;;;;;0.98;0.25;;;;;;;15.03;25.88;93678.72;4998537;28;20034;-90
2023/03/15 09:31:31;;;;;;;0.40;0.20;;;;;;;14.88;26.03;93670.19;4998365;28;20030;-90
2023/03/15 09:33:57;;;;;;;0.22;0.20;;;;;;;15.62;26.31;93683.41;4982612;28;20121;-91
2023/03/15 09:36:23;;;;;;;0.57;0.30;;;;;;;15.32;25.83;93664.09;4982332;28;20344;-91
2023/03/15 09:38:48;;;;;;;1.45;0.30;;;;;;;15.48;24.78;93701.28;4998169;28;20105;-90
2023/03/15 09:41:38;;;;;;;1.23;0.30;;;;;;;15.96;25.79;93691.53;4982195;28;20030;-91
2023/03/15 09:44:16;;;;;;;2.42;0.28;;;;;;;15.49;25.52;93695.72;5014646;28;20122;-91
2023/03/15 09:46:55;;;;;;;1.67;0.22;;;;;;;16.10;26.49;93715.88;5014579;28;20037;-91
2023/03/15 09:49:44;;;;;;;0.80;0.30;;;;;;;14.76;25.34;93704.31;5014819;28;20026;-91
2023/03/15 09:52:45;;;;;;;0.82;0.45;;;;;;;15.79;24.94;93702.94;4982261;28;20030;-91
2023/03/15 09:55:10;;;;;;;0.82;0.25;;;;;;;15.53;25.60;93709.81;4987121;28;20484;-91
2023/03/15 09:57:40;;;;;;;1.70;0.30;;;;;;;16.16;24.84;93711.19;4999111;28;20054;-91
2023/03/15 10:00:11;;;;;;;1.92;0.40;;;;;;;15.66;24.89;93723.16;4981693;28;20034;-91
2023/03/15 10:02:41;;;;;;;0.73;0.40;;;;;;;15.81;27.15;93732.44;4981956;28;20038;-91
2023/03/15 10:05:45;;;;;;;0.40;0.28;;;;;;;16.46;26.06;93723.66;4997783;28;20433;-90
2023/03/15 10:08:13;;;;;;;1.02;0.30;;;;;;;15.82;27.17;93723.44;4996838;28;20049;-91
2023/03/15 10:10:46;;;;;;;0.50;0.30;;;;;;;15.54;25.76;93727.22;4996761;28;20037;-91
2023/03/15 10:13:11;;;;;;;0.98;0.30;;;;;;;15.33;25.34;93735.00;4981255;28;20030;-91
2023/03/15 10:15:42;;;;;;;0.75;0.40;;;;;;;14.56;26.84;93730.94;5014021;28;20436;-91
2023/03/15 10:19:01;;;;;;;0.70;0.20;;;;;;;16.03;26.77;93747.31;4998638;28;20034;-90
2023/03/15 10:21:36;;;;;;;0.40;0.30;;;;;;;17.03;26.84;93750.69;4977272;28;20041;-91
2023/03/15 10:24:04;;;;;;;2.83;0.50;;;;;;;14.87;27.15;93717.97;4997405;28;20061;-91
2023/03/15 10:26:32;;;;;;;0.75;0.52;;;;;;;16.41;27.10;93751.03;4997222;28;20034;-91
2023/03/15 10:29:01;;;;;;;0.95;0.35;;;;;;;15.54;27.60;93742.28;4997082;28;20030;-91
2023/03/15 10:31:42;;;;;;;0.82;0.22;;;;;;;15.89;25.78;93773.13;4997351;28;20133;-91
2023/03/15 10:34:10;;;;;;;1.00;0.40;;;;;;;15.68;28.73;93758.72;4997378;28;20340;-88
2023/03/15 10:36:36;;;;;;;2.08;0.43;;;;;;;16.57;26.44;93761.84;4998230;28;20067;-88
2023/03/15 10:39:04;;;;;;;2.63;0.50;;;;;;;14.69;27.62;93750.34;4998097;28;20065;-88
2023/03/15 10:41:44;;;;;;;0.57;0.32;;;;;;;16.02;27.53;93768.75;4996651;28;20042;-87
2023/03/15 10:44:21;;;;;;;1.02;0.38;;;;;;;16.52;26.82;93769.97;4996820;28;20143;-87
2023/03/15 10:47:08;;;;;;;1.58;0.30;;;;;;;16.15;26.04;93782.88;4984574;28;20125;-88
2023/03/15 10:49:38;;;;;;;0.60;0.50;;;;;;;15.49;27.01;93782.81;4989759;28;20034;-88
2023/03/15 10:52:04;;;;;;;0.30;0.20;;;;;;;16.12;25.80;93768.44;4982531;28;20039;-88
2023/03/15 10:54:34;;;;;;;0.45;0.40;;;;;;;16.20;26.55;93783.47;4977154;28;20441;-88
2023/03/15 10:57:06;;;;;;;3.00;0.50;;;;;;;16.34;28.45;93766.63;4977493;28;20333;-87
2023/03/15 10:59:33;;;;;;;0.77;0.40;;;;;;;16.25;28.36;93782.50;4977001;28;20034;-88
2023/03/15 11:02:11;;;;;;;3.50;0.40;;;;;;;16.78;26.96;93783.03;4977170;28;20349;-87
2023/03/15 11:04:41;;;;;;;0.40;0.30;;;;;;;16.78;28.41;93783.03;4993468;28;20061;-88
2023/03/15 11:07:07;;;;;;;7.40;0.50;;;;;;;17.58;25.40;93780.59;4977595;28;20122;-88
2023/03/15 11:09:40;;;;;;;1.77;0.50;;;;;;;16.83;26.41;93795.28;4977204;28;20125;-88
2023/03/15 11:12:08;;;;;;;1.05;0.50;;;;;;;17.26;26.98;93785.53;4977223;28;20085;-88
2023/03/15 11:14:39;;;;;;;0.55;0.32;;;;;;;16.99;26.95;93792.09;4977707;28;20404;-87
2023/03/15 11:17:07;;;;;;;2.17;0.43;;;;;;;17.09;25.83;93797.81;4977280;28;20073;-87
2023/03/15 11:19:40;;;;;;;0.85;0.22;;;;;;;17.73;26.42;93795.13;4977349;28;20032;-88
2023/03/15 11:22:10;;;;;;;3.67;0.38;;;;;;;17.97;26.31;93809.53;4977056;28;20384;-87
2023/03/15 11:24:35;;;;;;;0.47;0.28;;;;;;;17.98;27.55;93805.00;4977312;28;20065;-88
2023/03/15 11:27:05;;;;;;;1.27;0.50;;;;;;;18.85;30.30;93807.75;4977086;28;20445;-88
2023/03/15 11:29:34;;;;;;;0.52;0.32;;;;;;;17.33;26.48;93800.91;4976679;28;20037;-88
2023/03/15 11:32:03;;;;;;;3.15;0.70;;;;;;;15.55;29.36;93776.28;4977155;28;20038;-87
2023/03/15 11:34:43;;;;;;;1.27;0.30;;;;;;;17.00;28.17;93804.25;4976968;28;20027;-88